createdAt,value
2023-01-07T00:01:56.302Z,2.35
2023-01-07T00:04:22.811Z,2.53
2023-01-07T00:06:49.302Z,1.92
2023-01-07T00:09:16.285Z,1.88
2023-01-07T00:11:42.736Z,2.20
2023-01-07T00:14:09.721Z,2.38
2023-01-07T00:16:36.187Z,2.20
2023-01-07T00:19:03.850Z,2.70
2023-01-07T00:21:30.340Z,2.25
2023-01-07T00:23:56.828Z,1.95
2023-01-07T00:26:23.342Z,1.52
2023-01-07T00:28:49.784Z,2.15
2023-01-07T00:31:16.415Z,2.10
2023-01-07T00:33:43.009Z,1.70
2023-01-07T00:36:10.048Z,1.98
2023-01-07T00:38:37.045Z,1.93
2023-01-07T00:41:03.543Z,1.75
2023-01-07T00:43:30.060Z,1.98
2023-01-07T00:45:56.509Z,1.88
2023-01-07T00:48:23.456Z,1.50
2023-01-07T00:50:49.971Z,1.65
2023-01-07T00:53:16.456Z,2.30
2023-01-07T00:55:42.964Z,1.65
2023-01-07T00:58:09.945Z,1.80
2023-01-07T01:00:36.433Z,2.03
2023-01-07T01:03:02.882Z,1.67
2023-01-07T01:05:29.871Z,1.83
2023-01-07T01:07:56.354Z,1.57
2023-01-07T01:10:22.810Z,2.00
2023-01-07T01:12:49.318Z,1.70
2023-01-07T01:15:16.346Z,1.38
2023-01-07T01:17:42.825Z,1.60
2023-01-07T01:20:09.285Z,1.33
2023-01-07T01:22:35.736Z,1.73
2023-01-07T01:25:02.216Z,1.67
2023-01-07T01:27:28.663Z,1.27
2023-01-07T01:29:55.633Z,1.48
2023-01-07T01:32:22.138Z,1.33
2023-01-07T01:34:49.126Z,1.60
2023-01-07T01:37:15.599Z,1.40
2023-01-07T01:39:42.069Z,1.45
2023-01-07T01:42:08.572Z,1.50
2023-01-07T01:44:35.583Z,1.52
2023-01-07T01:47:02.172Z,1.97
2023-01-07T01:49:28.665Z,1.30
2023-01-07T01:51:55.104Z,1.48
2023-01-07T01:54:21.613Z,1.80
2023-01-07T01:56:48.104Z,1.20
2023-01-07T01:59:14.568Z,1.25
2023-01-07T02:01:41.238Z,1.23
2023-01-07T02:04:08.297Z,1.10
2023-01-07T02:06:35.259Z,1.58
2023-01-07T02:09:02.202Z,1.45
2023-01-07T02:11:28.677Z,1.33
2023-01-07T02:13:55.173Z,1.25
2023-01-07T02:16:21.729Z,1.08
2023-01-07T02:18:48.750Z,1.42
2023-01-07T02:21:15.268Z,1.00
2023-01-07T02:23:41.715Z,1.48
2023-01-07T02:26:08.199Z,1.10
2023-01-07T02:28:35.218Z,1.50
2023-01-07T02:31:01.779Z,1.45
2023-01-07T02:33:28.323Z,1.15
2023-01-07T02:35:54.814Z,1.30
2023-01-07T02:38:21.324Z,1.15
2023-01-07T02:40:47.768Z,1.05
2023-01-07T02:43:14.196Z,1.20
2023-01-07T02:45:40.705Z,1.20
2023-01-07T02:48:07.162Z,0.98
2023-01-07T02:50:33.631Z,0.82
2023-01-07T02:53:00.149Z,1.00
2023-01-07T02:55:26.600Z,0.90
2023-01-07T02:57:53.071Z,1.20
2023-01-07T03:00:19.575Z,0.90
2023-01-07T03:02:46.519Z,1.00
2023-01-07T03:05:12.974Z,0.80
2023-01-07T03:07:39.476Z,0.80
2023-01-07T03:10:05.954Z,0.80
2023-01-07T03:12:32.968Z,0.88
2023-01-07T03:14:59.421Z,0.90
2023-01-07T03:17:25.879Z,1.10
2023-01-07T03:19:52.358Z,0.80
2023-01-07T03:22:18.802Z,0.82
2023-01-07T03:24:45.289Z,0.90
2023-01-07T03:27:11.736Z,0.98
2023-01-07T03:29:38.171Z,1.00
2023-01-07T03:32:04.702Z,1.00
2023-01-07T03:34:31.737Z,0.63
2023-01-07T03:36:58.212Z,1.10
2023-01-07T03:39:24.661Z,1.27
2023-01-07T03:41:51.105Z,0.70
2023-01-07T03:44:18.094Z,0.93
2023-01-07T03:46:44.573Z,0.98
2023-01-07T03:49:11.096Z,0.90
2023-01-07T03:51:37.549Z,0.95
2023-01-07T03:54:04.570Z,0.60
2023-01-07T03:56:31.067Z,0.90
2023-01-07T03:58:57.553Z,0.75
2023-01-07T04:01:24.052Z,0.70
2023-01-07T04:03:51.078Z,0.80
2023-01-07T04:06:17.546Z,0.90
2023-01-07T04:08:43.994Z,0.75
2023-01-07T04:11:10.467Z,0.90
2023-01-07T04:13:36.945Z,0.65
2023-01-07T04:16:03.393Z,0.68
2023-01-07T04:18:29.967Z,0.50
2023-01-07T04:20:56.422Z,0.93
2023-01-07T04:23:23.349Z,0.93
2023-01-07T04:25:49.832Z,0.52
2023-01-07T04:28:16.306Z,0.70
2023-01-07T04:30:42.758Z,0.70
2023-01-07T04:33:09.351Z,0.80
2023-01-07T04:35:36.353Z,0.65
2023-01-07T04:38:02.838Z,0.50
2023-01-07T04:40:29.277Z,0.60
2023-01-07T04:42:55.708Z,0.70
2023-01-07T04:45:22.140Z,0.85
2023-01-07T04:47:48.623Z,0.70
2023-01-07T04:50:15.107Z,0.63
2023-01-07T04:52:41.597Z,0.55
2023-01-07T04:55:08.093Z,0.60
2023-01-07T04:57:35.051Z,0.50
2023-01-07T05:00:01.560Z,0.60
2023-01-07T05:02:28.011Z,0.65
2023-01-07T05:04:54.514Z,0.73
2023-01-07T05:07:21.477Z,0.65
2023-01-07T05:09:47.932Z,0.63
2023-01-07T05:12:14.384Z,0.60
2023-01-07T05:14:41.367Z,0.70
2023-01-07T05:17:07.895Z,0.63
2023-01-07T05:19:34.327Z,0.70
2023-01-07T05:22:01.265Z,0.70
2023-01-07T05:24:28.214Z,0.85
2023-01-07T05:26:54.668Z,0.50
2023-01-07T05:29:21.188Z,0.70
2023-01-07T05:31:48.132Z,0.60
2023-01-07T05:34:14.595Z,0.80
2023-01-07T05:36:41.077Z,0.60
2023-01-07T05:39:07.556Z,0.60
2023-01-07T05:41:33.995Z,0.70
2023-01-07T05:44:00.962Z,0.60
2023-01-07T05:46:27.459Z,0.60
2023-01-07T05:48:53.960Z,0.50
2023-01-07T05:51:20.973Z,0.60
2023-01-07T05:53:47.468Z,0.60
2023-01-07T05:56:13.985Z,0.60
2023-01-07T05:58:40.502Z,0.38
2023-01-07T06:01:07.484Z,0.60
2023-01-07T06:03:34.093Z,0.52
2023-01-07T06:06:00.580Z,0.55
2023-01-07T06:08:27.062Z,0.50
2023-01-07T06:10:53.502Z,0.70
2023-01-07T06:13:19.991Z,0.57
2023-01-07T06:15:46.530Z,0.50
2023-01-07T06:18:13.070Z,0.60
2023-01-07T06:20:40.010Z,0.60
2023-01-07T06:23:06.953Z,0.40
2023-01-07T06:25:33.443Z,0.55
2023-01-07T06:27:59.922Z,0.50
2023-01-07T06:30:26.412Z,0.55
2023-01-07T06:32:52.899Z,0.63
2023-01-07T06:35:19.350Z,0.57
2023-01-07T06:37:45.791Z,0.47
2023-01-07T06:40:12.232Z,0.75
2023-01-07T06:42:38.694Z,0.52
2023-01-07T06:45:05.123Z,0.57
2023-01-07T06:47:31.575Z,0.63
2023-01-07T06:49:58.010Z,0.43
2023-01-07T06:52:24.950Z,0.57
2023-01-07T06:54:51.384Z,0.50
2023-01-07T06:57:17.889Z,0.52
2023-01-07T06:59:44.398Z,0.50
2023-01-07T07:02:10.883Z,0.60
2023-01-07T07:07:28.710Z,0.30
2023-01-07T07:09:55.139Z,0.60
2023-01-07T07:12:21.608Z,0.50
2023-01-07T07:14:48.037Z,0.60
2023-01-07T07:17:14.481Z,0.50
2023-01-07T07:19:41.428Z,0.60
2023-01-07T07:22:07.867Z,0.40
2023-01-07T07:24:34.379Z,0.38
2023-01-07T07:27:01.365Z,0.50
2023-01-07T07:29:27.813Z,0.30
2023-01-07T07:31:54.306Z,0.70
2023-01-07T07:34:20.824Z,0.90
2023-01-07T07:36:47.341Z,0.40
2023-01-07T07:39:13.808Z,0.47
2023-01-07T07:41:40.260Z,0.40
2023-01-07T07:44:06.705Z,0.47
2023-01-07T07:46:33.306Z,0.60
2023-01-07T07:48:59.823Z,0.68
2023-01-07T07:51:26.308Z,0.80
2023-01-07T07:53:52.762Z,0.90
2023-01-07T07:56:19.236Z,0.80
2023-01-07T07:58:45.723Z,0.88
2023-01-07T08:01:12.217Z,0.77
2023-01-07T08:03:38.815Z,0.50
2023-01-07T08:06:05.354Z,0.60
2023-01-07T08:08:31.883Z,0.45
2023-01-07T08:10:58.355Z,0.70
2023-01-07T08:13:24.790Z,0.70
2023-01-07T08:15:51.291Z,0.60
2023-01-07T08:18:17.819Z,0.73
2023-01-07T08:20:44.254Z,0.65
2023-01-07T08:23:11.224Z,0.70
2023-01-07T08:25:37.701Z,0.63
2023-01-07T08:28:04.673Z,0.70
2023-01-07T08:30:31.635Z,0.70
2023-01-07T08:32:58.148Z,0.60
2023-01-07T08:35:24.656Z,0.70
2023-01-07T08:37:51.144Z,0.80
2023-01-07T08:40:17.604Z,0.70
2023-01-07T08:42:44.045Z,0.40
2023-01-07T08:45:10.501Z,0.50
2023-01-07T08:47:36.940Z,0.52
2023-01-07T08:50:03.437Z,0.50
2023-01-07T08:52:30.426Z,0.85
2023-01-07T08:54:56.896Z,0.70
2023-01-07T08:57:23.389Z,0.70
2023-01-07T08:59:49.891Z,0.75
2023-01-07T09:02:16.485Z,0.70
2023-01-07T09:04:42.962Z,0.47
2023-01-07T09:07:09.524Z,0.60
2023-01-07T09:09:36.160Z,0.30
2023-01-07T09:12:03.083Z,0.57
2023-01-07T09:14:29.622Z,0.70
2023-01-07T09:16:56.058Z,0.60
2023-01-07T09:19:22.546Z,0.80
2023-01-07T09:21:49.030Z,0.70
2023-01-07T09:24:15.497Z,0.68
2023-01-07T09:26:41.931Z,1.00
2023-01-07T09:29:08.396Z,0.95
2023-01-07T09:31:34.975Z,0.70
2023-01-07T09:34:01.964Z,0.70
2023-01-07T09:36:28.403Z,1.00
2023-01-07T09:38:54.840Z,1.13
2023-01-07T09:41:21.323Z,1.30
2023-01-07T09:43:59.367Z,1.63
2023-01-07T09:46:27.703Z,1.73
2023-01-07T09:48:54.673Z,1.17
2023-01-07T09:51:21.654Z,1.40
2023-01-07T09:53:48.626Z,1.10
2023-01-07T09:56:15.582Z,1.00
2023-01-07T09:58:42.070Z,1.27
2023-01-07T10:01:09.167Z,1.05
2023-01-07T10:03:36.172Z,1.40
2023-01-07T10:06:02.729Z,1.15
2023-01-07T10:08:32.024Z,0.95
2023-01-07T10:10:59.398Z,0.90
2023-01-07T10:13:25.894Z,0.93
2023-01-07T10:15:52.384Z,0.90
2023-01-07T10:18:18.889Z,0.85
2023-01-07T10:20:45.826Z,0.85
2023-01-07T10:23:12.308Z,1.02
2023-01-07T10:25:38.759Z,0.70
2023-01-07T10:28:05.236Z,0.98
2023-01-07T10:30:32.180Z,0.95
2023-01-07T10:32:58.666Z,0.60
2023-01-07T10:35:25.125Z,1.15
2023-01-07T10:37:51.621Z,1.25
2023-01-07T10:40:18.121Z,0.70
2023-01-07T10:42:44.618Z,0.95
2023-01-07T10:45:11.597Z,0.85
2023-01-07T10:47:38.595Z,1.03
2023-01-07T10:50:05.096Z,1.17
2023-01-07T10:52:31.584Z,1.02
2023-01-07T10:54:58.062Z,0.77
2023-01-07T10:57:24.516Z,0.90
2023-01-07T10:59:51.020Z,1.15
2023-01-07T11:02:17.603Z,0.93
2023-01-07T11:04:44.259Z,0.82
2023-01-07T11:07:11.194Z,1.00
2023-01-07T11:09:37.637Z,1.40
2023-01-07T11:12:04.070Z,1.23
2023-01-07T11:14:30.545Z,0.95
2023-01-07T11:16:57.083Z,1.00
2023-01-07T11:19:23.675Z,1.05
2023-01-07T11:21:50.579Z,1.38
2023-01-07T11:24:17.106Z,0.80
2023-01-07T11:26:43.544Z,0.93
2023-01-07T11:29:10.493Z,0.98
2023-01-07T11:31:36.961Z,1.00
2023-01-07T11:34:04.534Z,0.98
2023-01-07T11:36:31.214Z,1.65
2023-01-07T11:38:57.675Z,1.00
2023-01-07T11:41:24.671Z,1.17
2023-01-07T11:43:51.105Z,1.00
2023-01-07T11:46:23.916Z,0.88
2023-01-07T11:48:51.666Z,0.70
2023-01-07T11:51:18.167Z,0.85
2023-01-07T11:53:44.637Z,0.80
2023-01-07T11:56:11.160Z,0.90
2023-01-07T11:58:37.670Z,0.95
2023-01-07T12:01:04.179Z,1.10
2023-01-07T12:03:30.731Z,1.15
2023-01-07T12:05:57.699Z,1.08
2023-01-07T12:08:24.191Z,1.08
2023-01-07T12:10:50.629Z,0.93
2023-01-07T12:13:17.089Z,1.02
2023-01-07T12:15:43.531Z,1.02
2023-01-07T12:18:10.042Z,0.90
2023-01-07T12:20:36.492Z,0.80
2023-01-07T12:23:02.918Z,0.95
2023-01-07T12:25:29.369Z,1.00
2023-01-07T12:27:56.301Z,0.90
2023-01-07T12:30:22.782Z,1.30
2023-01-07T12:32:49.273Z,0.93
2023-01-07T12:35:15.960Z,0.95
2023-01-07T12:37:42.544Z,1.13
2023-01-07T12:40:08.991Z,0.80
2023-01-07T12:42:35.472Z,1.05
2023-01-07T12:45:01.984Z,0.90
2023-01-07T12:47:31.154Z,0.55
2023-01-07T12:49:59.824Z,0.90
2023-01-07T12:52:26.340Z,0.80
2023-01-07T12:54:52.857Z,0.88
2023-01-07T12:57:19.304Z,1.90
2023-01-07T12:59:48.129Z,0.90
2023-01-07T13:02:14.747Z,1.00
2023-01-07T13:04:41.376Z,0.80
2023-01-07T13:07:07.931Z,0.73
2023-01-07T13:09:34.369Z,0.88
2023-01-07T13:12:00.799Z,1.33
2023-01-07T13:14:27.235Z,0.77
2023-01-07T13:16:53.706Z,0.65
2023-01-07T13:19:20.687Z,1.00
2023-01-07T13:21:47.182Z,0.70
2023-01-07T13:24:13.662Z,0.80
2023-01-07T13:26:45.634Z,1.00
2023-01-07T13:29:12.107Z,0.98
2023-01-07T13:31:39.194Z,0.90
2023-01-07T13:34:06.764Z,0.88
2023-01-07T13:36:33.739Z,0.82
2023-01-07T13:39:00.203Z,0.80
2023-01-07T13:41:26.652Z,1.00
2023-01-07T13:43:53.127Z,0.65
2023-01-07T13:46:19.605Z,1.10
2023-01-07T13:48:46.118Z,0.75
2023-01-07T13:51:12.635Z,1.00
2023-01-07T13:53:39.144Z,0.80
2023-01-07T13:56:05.666Z,0.60
2023-01-07T13:58:32.186Z,0.80
2023-01-07T14:00:58.708Z,0.93
2023-01-07T14:03:25.688Z,0.75
2023-01-07T14:05:52.289Z,0.70
2023-01-07T14:08:19.179Z,1.00
2023-01-07T14:10:46.154Z,1.17
2023-01-07T14:13:12.596Z,0.98
2023-01-07T14:15:39.026Z,0.90
2023-01-07T14:18:05.575Z,0.95
2023-01-07T14:20:32.069Z,1.05
2023-01-07T14:22:58.538Z,0.90
2023-01-07T14:25:25.021Z,0.95
2023-01-07T14:27:51.468Z,0.77
2023-01-07T14:30:17.946Z,0.80
2023-01-07T14:32:44.949Z,0.70
2023-01-07T14:35:11.427Z,0.97
2023-01-07T14:37:37.883Z,0.90
2023-01-07T14:40:04.333Z,0.95
2023-01-07T14:42:30.877Z,0.95
2023-01-07T14:44:57.358Z,1.17
2023-01-07T14:47:23.920Z,0.90
2023-01-07T14:49:50.368Z,0.88
2023-01-07T14:52:16.822Z,0.90
2023-01-07T14:54:43.255Z,0.70
2023-01-07T14:57:09.722Z,1.08
2023-01-07T14:59:36.228Z,0.93
2023-01-07T15:02:02.769Z,0.95
2023-01-07T15:04:30.835Z,0.85
2023-01-07T15:06:58.383Z,0.82
2023-01-07T15:09:24.827Z,0.80
2023-01-07T15:11:51.259Z,1.02
2023-01-07T15:14:17.750Z,1.38
2023-01-07T15:16:44.694Z,0.90
2023-01-07T15:19:11.632Z,1.10
2023-01-07T15:21:38.155Z,1.10
2023-01-07T15:24:04.620Z,0.93
2023-01-07T15:26:31.113Z,1.02
2023-01-07T15:28:57.579Z,1.10
2023-01-07T15:31:24.068Z,0.90
2023-01-07T15:33:51.109Z,0.88
2023-01-07T15:36:17.597Z,0.80
2023-01-07T15:38:44.107Z,0.98
2023-01-07T15:41:10.664Z,1.10
2023-01-07T15:43:37.598Z,0.95
2023-01-07T15:46:04.107Z,0.90
2023-01-07T15:48:30.554Z,0.85
2023-01-07T15:50:57.530Z,0.95
2023-01-07T15:53:24.465Z,1.10
2023-01-07T15:55:50.934Z,1.10
2023-01-07T15:58:17.880Z,1.00
2023-01-07T16:00:44.364Z,1.10
2023-01-07T16:03:10.863Z,1.02
2023-01-07T16:05:37.347Z,1.08
2023-01-07T16:08:03.850Z,1.23
2023-01-07T16:10:30.329Z,1.42
2023-01-07T16:12:56.828Z,1.40
2023-01-07T16:15:23.319Z,1.20
2023-01-07T16:17:49.808Z,0.90
2023-01-07T16:20:16.746Z,1.60
2023-01-07T16:22:43.241Z,1.48
2023-01-07T16:25:09.711Z,1.38
2023-01-07T16:27:36.246Z,0.93
2023-01-07T16:30:02.781Z,1.40
2023-01-07T16:32:29.256Z,1.30
2023-01-07T16:34:55.702Z,1.33
2023-01-07T16:37:22.149Z,1.58
2023-01-07T16:39:48.663Z,1.20
2023-01-07T16:42:15.660Z,1.52
2023-01-07T16:44:42.140Z,1.27
2023-01-07T16:47:08.601Z,1.55
2023-01-07T16:49:35.547Z,1.45
2023-01-07T16:52:02.046Z,1.38
2023-01-07T16:54:28.504Z,1.38
2023-01-07T16:56:54.984Z,1.63
2023-01-07T16:59:21.480Z,1.60
2023-01-07T17:01:48.663Z,1.85
2023-01-07T17:04:15.141Z,1.67
2023-01-07T17:06:41.667Z,1.20
2023-01-07T17:09:08.602Z,1.60
2023-01-07T17:11:35.036Z,1.50
2023-01-07T17:14:01.528Z,2.10
2023-01-07T17:16:28.116Z,1.25
2023-01-07T17:18:54.642Z,1.92
2023-01-07T17:21:21.125Z,1.65
2023-01-07T17:23:47.610Z,1.75
2023-01-07T17:26:14.047Z,1.33
2023-01-07T17:28:40.487Z,2.00
2023-01-07T17:31:07.100Z,1.90
2023-01-07T17:33:33.610Z,1.42
2023-01-07T17:36:00.137Z,1.50
2023-01-07T17:38:27.134Z,1.80
2023-01-07T17:40:53.632Z,1.65
2023-01-07T17:43:20.140Z,1.55
2023-01-07T17:45:46.733Z,1.77
2023-01-07T17:48:13.763Z,1.75
2023-01-07T17:50:40.431Z,1.73
2023-01-07T17:53:06.882Z,1.85
2023-01-07T17:55:33.395Z,1.50
2023-01-07T17:57:59.890Z,2.00
2023-01-07T18:00:26.380Z,1.65
2023-01-07T18:02:53.118Z,1.83
2023-01-07T18:05:19.632Z,2.08
2023-01-07T18:07:46.615Z,1.60
2023-01-07T18:10:13.063Z,1.37
2023-01-07T18:12:39.510Z,1.80
2023-01-07T18:15:06.015Z,1.90
2023-01-07T18:17:33.001Z,1.95
2023-01-07T18:19:59.492Z,1.63
2023-01-07T18:22:25.999Z,1.85
2023-01-07T18:24:52.458Z,2.28
2023-01-07T18:27:18.956Z,2.20
2023-01-07T18:29:45.450Z,1.90
2023-01-07T18:32:11.935Z,1.85
2023-01-07T18:34:38.405Z,1.92
2023-01-07T18:37:04.918Z,2.13
2023-01-07T18:39:31.927Z,1.90
2023-01-07T18:41:58.397Z,2.37
2023-01-07T18:44:24.890Z,1.80
2023-01-07T18:46:51.331Z,1.85
2023-01-07T18:49:17.783Z,2.10
2023-01-07T18:51:44.268Z,2.08
2023-01-07T18:54:10.716Z,1.73
2023-01-07T18:56:37.168Z,2.10
2023-01-07T18:59:03.669Z,1.65
2023-01-07T19:01:30.345Z,2.13
2023-01-07T19:03:56.992Z,2.17
2023-01-07T19:06:23.502Z,1.88
2023-01-07T19:08:50.001Z,1.83
2023-01-07T19:11:16.955Z,2.33
2023-01-07T19:13:43.441Z,1.95
2023-01-07T19:16:09.920Z,2.05
2023-01-07T19:18:36.416Z,1.77
2023-01-07T19:21:02.887Z,1.73
2023-01-07T19:23:29.379Z,1.90
2023-01-07T19:25:55.866Z,1.83
2023-01-07T19:28:22.328Z,1.83
2023-01-07T19:30:48.796Z,1.98
2023-01-07T19:33:15.236Z,2.00
2023-01-07T19:35:41.692Z,2.70
2023-01-07T19:38:08.169Z,2.53
2023-01-07T19:40:34.670Z,2.17
2023-01-07T19:43:01.109Z,2.30
2023-01-07T19:45:27.686Z,2.42
2023-01-07T19:47:54.204Z,2.22
2023-01-07T19:50:20.693Z,2.00
2023-01-07T19:52:47.132Z,2.55
2023-01-07T19:55:13.636Z,2.63
2023-01-07T19:57:40.109Z,2.47
2023-01-07T20:00:07.109Z,2.53
2023-01-07T20:02:33.649Z,2.93
2023-01-07T20:05:00.223Z,2.80
2023-01-07T20:07:27.175Z,2.28
2023-01-07T20:09:53.601Z,2.83
2023-01-07T20:12:20.058Z,3.05
2023-01-07T20:14:46.537Z,2.78
2023-01-07T20:17:13.007Z,3.55
2023-01-07T20:19:39.445Z,2.80
2023-01-07T20:22:05.958Z,2.80
2023-01-07T20:24:32.414Z,2.65
2023-01-07T20:26:58.847Z,2.90
2023-01-07T20:29:25.379Z,3.70
2023-01-07T20:31:52.428Z,3.30
2023-01-07T20:34:18.936Z,3.43
2023-01-07T20:36:45.376Z,3.67
2023-01-07T20:39:11.942Z,3.25
2023-01-07T20:41:38.423Z,3.35
2023-01-07T20:44:04.894Z,3.70
2023-01-07T20:46:31.399Z,3.83
2023-01-07T20:48:57.836Z,3.67
2023-01-07T20:51:24.758Z,4.05
2023-01-07T20:53:51.199Z,3.88
2023-01-07T20:56:17.678Z,3.45
2023-01-07T20:58:44.137Z,4.00
2023-01-07T21:01:10.789Z,3.60
2023-01-07T21:03:37.308Z,3.97
2023-01-07T21:06:03.783Z,3.15
2023-01-07T21:08:30.299Z,3.50
2023-01-07T21:10:56.749Z,3.75
2023-01-07T21:13:23.197Z,3.30
2023-01-07T21:15:50.183Z,3.63
2023-01-07T21:18:16.631Z,4.00
2023-01-07T21:20:43.148Z,3.38
2023-01-07T21:23:09.641Z,3.40
2023-01-07T21:25:36.085Z,3.55
2023-01-07T21:28:03.556Z,3.42
2023-01-07T21:30:30.062Z,3.45
2023-01-07T21:32:56.563Z,3.42
2023-01-07T21:35:23.010Z,3.70
2023-01-07T21:37:49.505Z,3.33
2023-01-07T21:40:15.977Z,3.45
2023-01-07T21:42:42.454Z,3.63
2023-01-07T21:45:08.957Z,3.30
2023-01-07T21:47:35.458Z,3.50
2023-01-07T21:50:01.978Z,2.85
2023-01-07T21:52:28.412Z,3.50
2023-01-07T21:54:54.871Z,2.95
2023-01-07T21:57:21.340Z,3.05
2023-01-07T21:59:47.826Z,2.88
2023-01-07T22:02:14.355Z,3.45
2023-01-07T22:04:40.882Z,3.28
2023-01-07T22:07:07.339Z,3.42
2023-01-07T22:09:33.853Z,2.90
2023-01-07T22:12:00.348Z,2.90
2023-01-07T22:14:26.787Z,3.53
2023-01-07T22:16:53.288Z,2.80
2023-01-07T22:19:19.748Z,3.28
2023-01-07T22:21:46.275Z,2.72
2023-01-07T22:24:12.782Z,3.00
2023-01-07T22:26:39.272Z,2.75
2023-01-07T22:29:05.767Z,3.03
2023-01-07T22:31:32.340Z,3.20
2023-01-07T22:33:58.844Z,3.20
2023-01-07T22:36:25.301Z,2.63
2023-01-07T22:38:51.878Z,3.10
2023-01-07T22:41:18.329Z,2.47
2023-01-07T22:43:44.795Z,3.10
2023-01-07T22:46:11.365Z,2.70
2023-01-07T22:48:37.867Z,2.50
2023-01-07T22:51:04.328Z,2.92
2023-01-07T22:53:30.762Z,3.00
2023-01-07T22:55:57.286Z,2.67
2023-01-07T22:58:23.767Z,2.80
2023-01-07T23:00:50.268Z,2.67
2023-01-07T23:03:16.795Z,2.47
2023-01-07T23:05:43.528Z,2.65
2023-01-07T23:08:10.560Z,2.50
2023-01-07T23:10:37.075Z,2.33
2023-01-07T23:13:03.560Z,1.92
2023-01-07T23:15:30.050Z,2.55
2023-01-07T23:17:56.502Z,2.78
2023-01-07T23:20:22.940Z,2.72
2023-01-07T23:22:49.394Z,2.63
2023-01-07T23:25:15.874Z,2.65
2023-01-07T23:27:42.865Z,2.35
2023-01-07T23:30:09.356Z,2.47
2023-01-07T23:32:35.823Z,2.50
2023-01-07T23:35:02.340Z,2.45
2023-01-07T23:37:28.826Z,2.35
2023-01-07T23:39:55.338Z,2.45
2023-01-07T23:42:21.784Z,2.42
2023-01-07T23:44:48.240Z,2.28
2023-01-07T23:47:14.680Z,2.83
2023-01-07T23:49:41.132Z,2.42
2023-01-07T23:52:07.565Z,2.20
2023-01-07T23:54:34.019Z,1.90
2023-01-07T23:57:00.451Z,2.13
2023-01-07T23:59:26.896Z,2.33
